Time;durP1;ratioP1;P1;durP2;ratioP2;P2;SDS_P1;SDS_P2;PMS_P1;PMS_P2;Temp;Humidity;BMP_temperature;BMP_pressure;BME280_temperature;BME280_humidity;BME280_pressure;Samples;Min_cycle;Max_cycle;Signal;HPM_P1;HPM_P2
2023/05/19 00:00:59;;;;;;;8.38;4.70;;;;;;;;;;4939541;29;20185;-75
2023/05/19 00:03:25;;;;;;;7.55;5.10;;;;;;;;;;4940089;29;20272;-75
2023/05/19 00:05:52;;;;;;;7.10;5.47;;;;;;;;;;4939801;29;20178;-75
2023/05/19 00:08:19;;;;;;;10.55;5.63;;;;;;;;;;4940214;29;20173;-75
2023/05/19 00:10:45;;;;;;;6.72;5.50;;;;;;;;;;4939802;29;20560;-75
2023/05/19 00:13:11;;;;;;;10.18;6.15;;;;;;;;;;4939736;29;20692;-75
2023/05/19 00:15:37;;;;;;;10.55;5.50;;;;;;;;;;4940777;29;20189;-75
2023/05/19 00:18:03;;;;;;;9.07;6.53;;;;;;;;;;4940205;29;20598;-75
2023/05/19 00:20:29;;;;;;;13.20;7.22;;;;;;;;;;4939846;29;20209;-75
2023/05/19 00:22:55;;;;;;;10.60;6.27;;;;;;;;;;4939470;29;20225;-75
2023/05/19 00:25:21;;;;;;;12.80;6.50;;;;;;;;;;4939556;29;20477;-75
2023/05/19 00:27:47;;;;;;;10.90;6.80;;;;;;;;;;4942425;29;20237;-76
2023/05/19 00:30:13;;;;;;;14.93;7.50;;;;;;;;;;4944112;29;20205;-75
2023/05/19 00:32:39;;;;;;;13.25;7.20;;;;;;;;;;4943684;29;20443;-78
2023/05/19 00:35:06;;;;;;;13.07;6.80;;;;;;;;;;4944115;29;20200;-75
2023/05/19 00:37:32;;;;;;;11.30;8.30;;;;;;;;;;4943478;29;20405;-75
2023/05/19 00:39:58;;;;;;;11.33;7.40;;;;;;;;;;4944036;29;20272;-75
2023/05/19 00:42:24;;;;;;;10.10;6.72;;;;;;;;;;4943546;29;20905;-75
2023/05/19 00:44:51;;;;;;;9.00;7.95;;;;;;;;;;4943819;29;20526;-75
2023/05/19 00:47:17;;;;;;;16.25;8.15;;;;;;;;;;4943753;29;20193;-75
2023/05/19 00:49:43;;;;;;;14.30;7.90;;;;;;;;;;4943307;29;20178;-76
2023/05/19 00:52:09;;;;;;;11.00;7.10;;;;;;;;;;4943797;29;20469;-75
2023/05/19 00:54:35;;;;;;;22.95;8.45;;;;;;;;;;4943658;29;20421;-75
2023/05/19 00:57:02;;;;;;;10.68;9.35;;;;;;;;;;4943616;29;20185;-75
2023/05/19 00:59:28;;;;;;;10.85;7.22;;;;;;;;;;4943977;29;20607;-75
2023/05/19 01:01:54;;;;;;;15.30;7.53;;;;;;;;;;4943582;29;20268;-75
2023/05/19 01:04:20;;;;;;;13.90;8.65;;;;;;;;;;4943808;29;20193;-75
2023/05/19 01:06:48;;;;;;;12.00;7.82;;;;;;;;;;4943544;29;20277;-75
2023/05/19 01:09:14;;;;;;;12.50;8.60;;;;;;;;;;4943377;29;20193;-75
2023/05/19 01:11:40;;;;;;;12.05;8.60;;;;;;;;;;4943597;29;20200;-74
2023/05/19 01:14:06;;;;;;;11.70;8.00;;;;;;;;;;4943241;29;20249;-75
2023/05/19 01:16:37;;;;;;;9.57;8.30;;;;;;;;;;4943613;29;20515;-74
2023/05/19 01:19:24;;;;;;;9.90;8.02;;;;;;;;;;4943598;29;20943;-74
2023/05/19 01:21:55;;;;;;;13.80;8.05;;;;;;;;;;4943371;29;20221;-75
2023/05/19 01:24:21;;;;;;;16.02;8.23;;;;;;;;;;4943536;29;20170;-74
2023/05/19 01:26:50;;;;;;;15.13;7.67;;;;;;;;;;4943122;29;20188;-75
2023/05/19 01:29:35;;;;;;;9.15;7.65;;;;;;;;;;4943135;29;20420;-74
2023/05/19 01:32:03;;;;;;;9.00;8.10;;;;;;;;;;4942965;29;20177;-74
2023/05/19 01:34:30;;;;;;;12.23;8.43;;;;;;;;;;4943239;29;20178;-75
2023/05/19 01:36:57;;;;;;;12.40;7.35;;;;;;;;;;4943102;29;20524;-75
2023/05/19 01:39:24;;;;;;;14.05;8.98;;;;;;;;;;4943417;29;20594;-75
2023/05/19 01:41:50;;;;;;;8.93;7.68;;;;;;;;;;4943462;29;20264;-75
2023/05/19 01:44:16;;;;;;;10.32;7.53;;;;;;;;;;4943587;29;20178;-74
2023/05/19 01:46:43;;;;;;;14.32;7.63;;;;;;;;;;4943496;29;20174;-75
2023/05/19 01:49:09;;;;;;;13.35;7.53;;;;;;;;;;4943039;29;20194;-75
2023/05/19 01:51:35;;;;;;;13.85;7.75;;;;;;;;;;4943545;29;20268;-74
2023/05/19 01:54:01;;;;;;;16.30;8.90;;;;;;;;;;4943362;29;20185;-74
2023/05/19 01:56:33;;;;;;;14.80;8.77;;;;;;;;;;4943283;29;20295;-75
2023/05/19 01:59:03;;;;;;;15.63;10.10;;;;;;;;;;4943076;29;20181;-75
2023/05/19 02:01:29;;;;;;;10.45;7.38;;;;;;;;;;4941996;29;20209;-75
2023/05/19 02:04:02;;;;;;;15.15;8.15;;;;;;;;;;4942871;29;20268;-73
2023/05/19 02:06:28;;;;;;;11.63;8.18;;;;;;;;;;4942796;29;20177;-73
2023/05/19 02:08:57;;;;;;;15.13;9.03;;;;;;;;;;4942376;29;20668;-74
2023/05/19 02:11:56;;;;;;;13.50;8.60;;;;;;;;;;4943153;29;20921;-73
2023/05/19 02:14:22;;;;;;;12.70;8.13;;;;;;;;;;4910760;29;20303;-73
2023/05/19 02:16:48;;;;;;;10.53;7.87;;;;;;;;;;4943103;29;20178;-74
2023/05/19 02:19:21;;;;;;;11.07;7.82;;;;;;;;;;4943209;29;20421;-73
2023/05/19 02:21:47;;;;;;;16.42;9.20;;;;;;;;;;4942040;29;20206;-74
2023/05/19 02:24:13;;;;;;;10.23;8.10;;;;;;;;;;4942554;29;20599;-73
2023/05/19 02:26:39;;;;;;;9.80;8.80;;;;;;;;;;4943114;29;20401;-73
2023/05/19 02:29:05;;;;;;;14.00;8.70;;;;;;;;;;4942165;29;20929;-73
2023/05/19 02:31:31;;;;;;;13.90;8.30;;;;;;;;;;4942616;29;20198;-73
2023/05/19 02:33:57;;;;;;;11.07;8.27;;;;;;;;;;4942738;29;20806;-74
2023/05/19 02:36:25;;;;;;;14.47;7.67;;;;;;;;;;4942449;29;20501;-74
2023/05/19 02:38:51;;;;;;;10.80;7.78;;;;;;;;;;4943000;29;20430;-74
2023/05/19 02:41:17;;;;;;;10.35;8.07;;;;;;;;;;4941878;29;20212;-74
2023/05/19 02:43:43;;;;;;;13.10;9.10;;;;;;;;;;4942198;29;20608;-73
2023/05/19 02:46:09;;;;;;;8.82;7.93;;;;;;;;;;4940506;29;20209;-74
2023/05/19 02:48:35;;;;;;;14.00;8.90;;;;;;;;;;4942490;29;20184;-74
2023/05/19 02:51:01;;;;;;;13.47;8.30;;;;;;;;;;4941106;29;20555;-73
2023/05/19 02:53:27;;;;;;;11.77;8.18;;;;;;;;;;4941619;29;20763;-73
2023/05/19 02:55:53;;;;;;;10.40;8.10;;;;;;;;;;4941804;29;20217;-74
2023/05/19 02:58:19;;;;;;;17.00;8.60;;;;;;;;;;4942055;29;20213;-73
2023/05/19 03:00:45;;;;;;;11.80;7.87;;;;;;;;;;4942526;29;20517;-73
2023/05/19 03:03:12;;;;;;;10.43;8.40;;;;;;;;;;4940866;29;20481;-73
2023/05/19 03:05:38;;;;;;;11.77;8.27;;;;;;;;;;4941755;29;20177;-73
2023/05/19 03:08:05;;;;;;;11.60;8.60;;;;;;;;;;4941607;29;20685;-73
2023/05/19 03:10:30;;;;;;;11.57;7.30;;;;;;;;;;4941734;29;20963;-73
2023/05/19 03:12:56;;;;;;;8.47;7.57;;;;;;;;;;4941696;29;20217;-74
2023/05/19 03:15:22;;;;;;;15.20;9.23;;;;;;;;;;4941254;29;20414;-73
2023/05/19 03:17:48;;;;;;;14.37;8.87;;;;;;;;;;4941632;29;20415;-73
2023/05/19 03:20:15;;;;;;;13.70;8.30;;;;;;;;;;4942276;29;20474;-73
2023/05/19 03:22:41;;;;;;;18.10;8.32;;;;;;;;;;4941417;29;20221;-74
2023/05/19 03:25:07;;;;;;;17.80;8.48;;;;;;;;;;4941027;29;20182;-74
2023/05/19 03:27:33;;;;;;;10.68;8.43;;;;;;;;;;4941839;29;20192;-73
2023/05/19 03:29:59;;;;;;;14.17;9.27;;;;;;;;;;4941359;29;20181;-74
2023/05/19 03:32:25;;;;;;;12.30;8.67;;;;;;;;;;4942132;29;20909;-73
2023/05/19 03:34:51;;;;;;;9.52;7.95;;;;;;;;;;4941366;29;20411;-75
2023/05/19 03:37:17;;;;;;;13.75;8.30;;;;;;;;;;4942052;29;20320;-74
2023/05/19 03:39:43;;;;;;;12.82;8.60;;;;;;;;;;4941935;29;20197;-73
2023/05/19 03:42:09;;;;;;;14.63;9.57;;;;;;;;;;4941818;29;20217;-73
2023/05/19 03:44:35;;;;;;;13.20;7.57;;;;;;;;;;4941666;29;20174;-73
2023/05/19 03:47:01;;;;;;;22.00;10.18;;;;;;;;;;4941081;29;20529;-73
2023/05/19 03:49:27;;;;;;;10.30;8.93;;;;;;;;;;4941955;29;20212;-73
2023/05/19 03:51:53;;;;;;;13.63;8.85;;;;;;;;;;4941440;29;20241;-74
2023/05/19 03:54:21;;;;;;;12.82;9.23;;;;;;;;;;4941828;29;20169;-73
2023/05/19 03:56:47;;;;;;;13.98;8.55;;;;;;;;;;4941506;29;20177;-74
2023/05/19 03:59:14;;;;;;;12.98;8.60;;;;;;;;;;4940842;29;20186;-74
2023/05/19 04:01:40;;;;;;;12.95;8.60;;;;;;;;;;4923592;29;20221;-73
2023/05/19 04:04:07;;;;;;;12.20;8.63;;;;;;;;;;4941046;29;20177;-73
2023/05/19 04:06:33;;;;;;;10.30;8.30;;;;;;;;;;4941015;29;20181;-73
2023/05/19 04:08:59;;;;;;;12.55;7.55;;;;;;;;;;4941050;29;20177;-74
2023/05/19 04:11:25;;;;;;;13.43;8.52;;;;;;;;;;4940106;29;20698;-74
2023/05/19 04:13:51;;;;;;;13.07;9.63;;;;;;;;;;4940955;29;20181;-73
2023/05/19 04:16:17;;;;;;;11.23;8.30;;;;;;;;;;4940647;29;20201;-73
2023/05/19 04:18:45;;;;;;;12.20;8.93;;;;;;;;;;4941172;29;20196;-74
2023/05/19 04:21:11;;;;;;;15.52;8.93;;;;;;;;;;4940682;29;20197;-74
2023/05/19 04:23:37;;;;;;;15.85;8.80;;;;;;;;;;4941772;29;20642;-74
2023/05/19 04:26:05;;;;;;;12.48;8.77;;;;;;;;;;4940946;29;20180;-74
2023/05/19 04:28:32;;;;;;;12.65;8.90;;;;;;;;;;4941402;29;20587;-74
2023/05/19 04:30:58;;;;;;;13.70;8.07;;;;;;;;;;4941172;29;20194;-74
2023/05/19 04:33:25;;;;;;;12.30;9.25;;;;;;;;;;4941141;29;20630;-74
2023/05/19 04:35:51;;;;;;;14.73;9.55;;;;;;;;;;4941293;29;20181;-74
2023/05/19 04:38:18;;;;;;;15.48;8.80;;;;;;;;;;4941188;29;20178;-74
2023/05/19 04:40:44;;;;;;;12.02;8.68;;;;;;;;;;4941280;29;20592;-73
2023/05/19 04:43:10;;;;;;;17.60;9.80;;;;;;;;;;4940752;29;20221;-74
2023/05/19 04:45:37;;;;;;;12.18;7.80;;;;;;;;;;4941296;29;20197;-74
2023/05/19 04:48:03;;;;;;;10.10;8.75;;;;;;;;;;4941120;29;20186;-74
2023/05/19 04:50:31;;;;;;;17.10;8.80;;;;;;;;;;4941653;29;20604;-74
2023/05/19 04:52:58;;;;;;;11.15;7.93;;;;;;;;;;4941350;29;20713;-74
2023/05/19 04:55:24;;;;;;;11.98;8.25;;;;;;;;;;4940845;29;20280;-73
2023/05/19 04:57:50;;;;;;;11.38;7.97;;;;;;;;;;4941801;29;20672;-73
2023/05/19 05:00:16;;;;;;;17.77;9.07;;;;;;;;;;4941330;29;20601;-73
2023/05/19 05:02:42;;;;;;;13.82;9.30;;;;;;;;;;4941116;29;20206;-74
2023/05/19 05:05:08;;;;;;;11.70;9.13;;;;;;;;;;4941229;29;20180;-73
2023/05/19 05:07:35;;;;;;;11.20;9.90;;;;;;;;;;4924434;29;20177;-73
2023/05/19 05:10:01;;;;;;;12.50;9.80;;;;;;;;;;4941156;29;20212;-74
2023/05/19 05:12:27;;;;;;;12.93;8.88;;;;;;;;;;4941278;29;20541;-74
2023/05/19 05:14:53;;;;;;;17.95;10.70;;;;;;;;;;4945229;29;20181;-73
2023/05/19 05:17:20;;;;;;;14.57;8.32;;;;;;;;;;4927523;29;20241;-74
2023/05/19 05:19:47;;;;;;;12.23;9.85;;;;;;;;;;4944877;29;20193;-74
2023/05/19 05:22:13;;;;;;;17.27;10.60;;;;;;;;;;4944187;29;20220;-73
2023/05/19 05:24:39;;;;;;;13.13;10.38;;;;;;;;;;4943921;29;20173;-73
2023/05/19 05:27:07;;;;;;;17.88;10.02;;;;;;;;;;4944318;29;20177;-74
2023/05/19 05:29:33;;;;;;;14.75;11.65;;;;;;;;;;4944329;29;20186;-73
2023/05/19 05:31:59;;;;;;;14.27;10.13;;;;;;;;;;4943958;29;20241;-74
2023/05/19 05:34:25;;;;;;;20.95;13.00;;;;;;;;;;4944569;29;20539;-73
2023/05/19 05:36:51;;;;;;;15.57;10.57;;;;;;;;;;4944438;29;20264;-73
2023/05/19 05:39:17;;;;;;;15.70;11.85;;;;;;;;;;4943804;29;20192;-73
2023/05/19 05:41:43;;;;;;;23.55;12.07;;;;;;;;;;4944411;29;20547;-73
2023/05/19 05:44:09;;;;;;;17.15;10.68;;;;;;;;;;4944391;29;20544;-73
2023/05/19 05:46:35;;;;;;;15.40;11.90;;;;;;;;;;4943902;29;20190;-73
2023/05/19 05:49:01;;;;;;;21.15;11.98;;;;;;;;;;4943746;29;20214;-74
2023/05/19 05:51:27;;;;;;;14.68;11.02;;;;;;;;;;4944129;29;20280;-73
2023/05/19 05:53:54;;;;;;;11.70;9.38;;;;;;;;;;4942832;29;20182;-81
2023/05/19 05:56:20;;;;;;;12.73;9.30;;;;;;;;;;4940710;29;20188;-82
2023/05/19 05:58:46;;;;;;;16.80;8.88;;;;;;;;;;4940345;29;20181;-81
2023/05/19 06:01:15;;;;;;;24.10;11.15;;;;;;;;;;4940238;29;20177;-82
2023/05/19 06:03:43;;;;;;;11.13;9.18;;;;;;;;;;4940788;29;20165;-82
2023/05/19 06:06:10;;;;;;;13.35;10.07;;;;;;;;;;4940525;29;20182;-84
2023/05/19 06:08:36;;;;;;;14.93;10.85;;;;;;;;;;4941024;29;20180;-82
2023/05/19 06:11:08;;;;;;;11.95;9.30;;;;;;;;;;4940769;29;20193;-82
2023/05/19 06:13:35;;;;;;;14.52;8.60;;;;;;;;;;4940090;29;20669;-82
2023/05/19 06:16:01;;;;;;;16.73;8.88;;;;;;;;;;4940363;29;20181;-83
2023/05/19 06:18:27;;;;;;;11.98;8.50;;;;;;;;;;4940299;29;20177;-82
2023/05/19 06:20:53;;;;;;;13.23;8.60;;;;;;;;;;4939353;29;20197;-83
2023/05/19 06:23:20;;;;;;;11.00;8.30;;;;;;;;;;4939391;29;20240;-82
2023/05/19 06:25:46;;;;;;;13.65;8.57;;;;;;;;;;4938810;29;20409;-82
2023/05/19 06:28:12;;;;;;;7.40;6.70;;;;;;;;;;4939509;29;20650;-83
2023/05/19 06:30:38;;;;;;;7.03;3.63;;;;;;;;;;4940342;29;20433;-82
2023/05/19 06:33:04;;;;;;;14.70;3.73;;;;;;;;;;4939521;29;20413;-83
2023/05/19 06:35:30;;;;;;;6.45;3.70;;;;;;;;;;4939885;29;20561;-81
2023/05/19 06:37:56;;;;;;;7.57;3.10;;;;;;;;;;4941829;29;20194;-74
2023/05/19 06:40:23;;;;;;;6.30;3.20;;;;;;;;;;4942028;29;20241;-74
2023/05/19 06:42:49;;;;;;;4.72;3.10;;;;;;;;;;4941137;29;20878;-80
2023/05/19 06:45:15;;;;;;;9.23;3.20;;;;;;;;;;4939651;29;20228;-82
2023/05/19 06:47:41;;;;;;;5.57;2.92;;;;;;;;;;4940044;29;20481;-82
2023/05/19 06:50:08;;;;;;;5.17;2.63;;;;;;;;;;4938913;29;20182;-83
2023/05/19 06:52:34;;;;;;;4.93;2.58;;;;;;;;;;4946362;29;20413;-82
2023/05/19 06:55:01;;;;;;;15.00;2.40;;;;;;;;;;4940045;29;20177;-83
2023/05/19 06:57:27;;;;;;;7.67;3.40;;;;;;;;;;4938555;29;20193;-82
2023/05/19 06:59:53;;;;;;;5.57;2.50;;;;;;;;;;4922315;29;20882;-83
2023/05/19 07:02:19;;;;;;;8.93;3.00;;;;;;;;;;4939272;29;20465;-84
2023/05/19 07:04:46;;;;;;;10.37;2.83;;;;;;;;;;4939813;29;20449;-84
2023/05/19 07:07:12;;;;;;;4.47;2.73;;;;;;;;;;4938931;29;20512;-84
2023/05/19 07:09:38;;;;;;;5.77;2.60;;;;;;;;;;4939864;29;20408;-84
2023/05/19 07:12:04;;;;;;;6.70;2.67;;;;;;;;;;4938783;29;20539;-84
2023/05/19 07:14:30;;;;;;;5.87;2.90;;;;;;;;;;4939184;29;20401;-84
2023/05/19 07:16:56;;;;;;;9.83;4.60;;;;;;;;;;4939356;29;20805;-84
2023/05/19 07:19:22;;;;;;;8.13;3.13;;;;;;;;;;4938773;29;20512;-84
2023/05/19 07:21:49;;;;;;;5.40;2.73;;;;;;;;;;4938741;29;20469;-84
2023/05/19 07:24:15;;;;;;;7.03;3.13;;;;;;;;;;4938558;29;20420;-84
2023/05/19 07:26:41;;;;;;;8.90;3.00;;;;;;;;;;4938630;29;20453;-83
2023/05/19 07:29:07;;;;;;;6.73;3.03;;;;;;;;;;4939414;29;20902;-75
2023/05/19 07:31:33;;;;;;;6.30;2.77;;;;;;;;;;4940820;29;20457;-75
2023/05/19 07:33:59;;;;;;;5.03;3.20;;;;;;;;;;4940730;29;20457;-75
2023/05/19 07:36:26;;;;;;;6.30;3.43;;;;;;;;;;4940319;29;20417;-75
2023/05/19 07:38:51;;;;;;;4.83;2.50;;;;;;;;;;4952360;29;20499;-75
2023/05/19 07:41:17;;;;;;;5.17;2.70;;;;;;;;;;4956256;29;20862;-75
2023/05/19 07:43:43;;;;;;;11.93;2.70;;;;;;;;;;4960105;29;20443;-75
2023/05/19 07:46:09;;;;;;;6.67;2.80;;;;;;;;;;4959872;29;20401;-75
2023/05/19 07:48:36;;;;;;;4.77;2.67;;;;;;;;;;4959365;29;20388;-75
2023/05/19 07:51:02;;;;;;;9.53;2.67;;;;;;;;;;4959297;29;20435;-75
2023/05/19 07:53:28;;;;;;;7.47;2.60;;;;;;;;;;4959057;29;20412;-75
2023/05/19 07:55:55;;;;;;;5.73;2.50;;;;;;;;;;4959093;29;20413;-75
2023/05/19 07:58:21;;;;;;;5.03;2.40;;;;;;;;;;4959378;29;20421;-75
2023/05/19 08:00:47;;;;;;;3.90;1.83;;;;;;;;;;4959049;29;20409;-75
2023/05/19 08:03:16;;;;;;;6.50;2.47;;;;;;;;;;4958572;29;20535;-75
2023/05/19 08:05:42;;;;;;;9.47;2.63;;;;;;;;;;4958680;29;20801;-75
2023/05/19 08:08:08;;;;;;;5.13;1.73;;;;;;;;;;4958242;29;20391;-76
2023/05/19 08:10:34;;;;;;;4.83;2.07;;;;;;;;;;4959339;29;20420;-75
2023/05/19 08:13:00;;;;;;;9.37;2.20;;;;;;;;;;4959436;29;20395;-75
2023/05/19 08:15:26;;;;;;;6.60;2.47;;;;;;;;;;4958780;29;20422;-75
2023/05/19 08:17:52;;;;;;;26.27;3.70;;;;;;;;;;4959000;29;20386;-75
2023/05/19 08:20:19;;;;;;;2.97;1.43;;;;;;;;;;4958638;29;20421;-75
2023/05/19 08:22:45;;;;;;;4.37;2.10;;;;;;;;;;4958875;29;20468;-75
2023/05/19 08:25:11;;;;;;;4.17;1.70;;;;;;;;;;4958384;29;20873;-76
2023/05/19 08:27:37;;;;;;;2.93;1.80;;;;;;;;;;4958742;29;20401;-75
2023/05/19 08:30:03;;;;;;;4.13;1.73;;;;;;;;;;4958472;29;20405;-75
2023/05/19 08:32:29;;;;;;;5.80;2.10;;;;;;;;;;4957939;29;20420;-75
2023/05/19 08:34:55;;;;;;;4.30;2.20;;;;;;;;;;4958058;29;20409;-75
2023/05/19 08:37:21;;;;;;;5.93;2.33;;;;;;;;;;4958221;29;20416;-75
2023/05/19 08:39:47;;;;;;;5.90;2.00;;;;;;;;;;4958178;29;20412;-75
2023/05/19 08:42:13;;;;;;;5.17;2.37;;;;;;;;;;4957922;29;20800;-76
2023/05/19 08:44:40;;;;;;;4.43;1.77;;;;;;;;;;4958009;29;20428;-75
2023/05/19 08:47:12;;;;;;;7.50;2.00;;;;;;;;;;4957495;28;20405;-76
2023/05/19 08:49:42;;;;;;;2.83;1.70;;;;;;;;;;4961132;29;20428;-75
2023/05/19 08:52:25;;;;;;;5.13;1.50;;;;;;;;;;4961510;29;20468;-76
2023/05/19 08:55:20;;;;;;;3.30;1.67;;;;;;;;;;4961617;29;20426;-76
2023/05/19 08:57:48;;;;;;;5.87;1.80;;;;;;;;;;4953005;29;20987;-75
2023/05/19 09:00:15;;;;;;;5.93;2.83;;;;;;;;;;4960802;29;20381;-75
2023/05/19 09:02:42;;;;;;;3.20;1.43;;;;;;;;;;4961044;29;20463;-76
2023/05/19 09:05:08;;;;;;;5.93;1.90;;;;;;;;;;4961069;29;20942;-78
2023/05/19 09:07:36;;;;;;;4.07;1.83;;;;;;;;;;4960698;29;20463;-77
2023/05/19 09:10:03;;;;;;;7.03;1.83;;;;;;;;;;4961040;29;20408;-76
2023/05/19 09:12:29;;;;;;;7.23;2.50;;;;;;;;;;4960197;29;20432;-76
2023/05/19 09:14:55;;;;;;;5.00;1.90;;;;;;;;;;4959950;29;20409;-76
2023/05/19 09:17:21;;;;;;;5.87;2.10;;;;;;;;;;4960200;29;20814;-76
2023/05/19 09:19:48;;;;;;;4.00;1.97;;;;;;;;;;4960574;29;20495;-76
2023/05/19 09:22:14;;;;;;;6.23;2.40;;;;;;;;;;4960064;29;20479;-76
2023/05/19 09:24:40;;;;;;;3.20;1.63;;;;;;;;;;4960251;29;20401;-76
2023/05/19 09:27:07;;;;;;;5.67;1.60;;;;;;;;;;4959913;29;20508;-76
2023/05/19 09:29:33;;;;;;;5.30;2.17;;;;;;;;;;4959556;29;20491;-76
2023/05/19 09:32:02;;;;;;;5.10;2.17;;;;;;;;;;4959610;29;20424;-76
2023/05/19 09:34:28;;;;;;;5.77;2.10;;;;;;;;;;4959190;29;20416;-76
2023/05/19 09:36:56;;;;;;;6.50;2.20;;;;;;;;;;4958871;29;20443;-75
2023/05/19 09:39:23;;;;;;;3.80;1.80;;;;;;;;;;4844084;28;20476;-75
2023/05/19 09:41:53;;;;;;;5.97;2.00;;;;;;;;;;4773908;28;20508;-75
2023/05/19 09:44:23;;;;;;;4.37;2.03;;;;;;;;;;4793284;28;20570;-76
2023/05/19 09:46:49;;;;;;;5.87;2.00;;;;;;;;;;4782997;28;21122;-74
2023/05/19 09:49:22;;;;;;;3.97;1.80;;;;;;;;;;4804441;28;20468;-75
2023/05/19 09:51:55;;;;;;;4.63;2.10;;;;;;;;;;4784708;29;20576;-74
2023/05/19 09:54:26;;;;;;;4.83;2.00;;;;;;;;;;4777820;28;20529;-74
2023/05/19 09:56:58;;;;;;;4.93;2.07;;;;;;;;;;4762872;28;20577;-74
2023/05/19 09:59:25;;;;;;;3.67;2.17;;;;;;;;;;4780005;29;20498;-73
2023/05/19 10:01:55;;;;;;;4.50;2.10;;;;;;;;;;4797486;28;20497;-73
2023/05/19 10:04:22;;;;;;;5.63;2.67;;;;;;;;;;4795537;28;20915;-74
2023/05/19 10:06:52;;;;;;;6.13;1.97;;;;;;;;;;4854951;28;20566;-75
2023/05/19 10:09:26;;;;;;;3.50;2.03;;;;;;;;;;4941249;29;20409;-82
2023/05/19 10:11:52;;;;;;;6.10;2.33;;;;;;;;;;4938344;29;20420;-84
2023/05/19 10:14:22;;;;;;;6.70;2.17;;;;;;;;;;4937817;29;20432;-85
2023/05/19 10:16:50;;;;;;;3.97;1.70;;;;;;;;;;4938045;29;20465;-83
2023/05/19 10:19:17;;;;;;;6.40;3.10;;;;;;;;;;4940413;29;20477;-85
2023/05/19 10:21:43;;;;;;;6.53;1.90;;;;;;;;;;4937570;29;20473;-84
2023/05/19 10:24:09;;;;;;;4.83;2.20;;;;;;;;;;4937926;29;20428;-84
2023/05/19 10:26:35;;;;;;;4.80;2.00;;;;;;;;;;4937615;29;20414;-84
2023/05/19 10:29:02;;;;;;;29.63;6.83;;;;;;;;;;4937265;29;20414;-84
2023/05/19 10:31:30;;;;;;;8.50;3.67;;;;;;;;;;4937386;29;20526;-84
2023/05/19 10:34:05;;;;;;;6.63;2.47;;;;;;;;;;4937372;29;20426;-85
2023/05/19 10:36:38;;;;;;;6.87;2.77;;;;;;;;;;4937320;29;20441;-84
2023/05/19 10:39:06;;;;;;;4.57;2.47;;;;;;;;;;4937625;29;20456;-83
2023/05/19 10:41:35;;;;;;;3.33;1.93;;;;;;;;;;4937236;29;20805;-84
2023/05/19 10:44:01;;;;;;;4.70;2.07;;;;;;;;;;4937477;29;20788;-83
2023/05/19 10:46:28;;;;;;;3.70;1.70;;;;;;;;;;4937426;29;20418;-84
2023/05/19 10:48:54;;;;;;;7.53;2.03;;;;;;;;;;4937386;29;20467;-83
2023/05/19 10:51:20;;;;;;;5.90;2.73;;;;;;;;;;4936889;29;20465;-84
2023/05/19 10:53:48;;;;;;;3.90;1.73;;;;;;;;;;4937535;29;20451;-84
2023/05/19 10:56:35;;;;;;;4.13;2.00;;;;;;;;;;4937201;29;20775;-87
2023/05/19 10:59:02;;;;;;;4.20;1.80;;;;;;;;;;4937199;29;20405;-84
2023/05/19 11:01:34;;;;;;;6.60;2.10;;;;;;;;;;4937022;29;20828;-84
2023/05/19 11:04:12;;;;;;;6.20;2.03;;;;;;;;;;4936984;29;20409;-85
2023/05/19 11:06:39;;;;;;;3.37;1.87;;;;;;;;;;4937126;29;20520;-83
2023/05/19 11:09:05;;;;;;;2.80;1.87;;;;;;;;;;4936968;29;20450;-84
2023/05/19 11:11:51;;;;;;;5.13;1.93;;;;;;;;;;4936175;29;20413;-83
2023/05/19 11:14:18;;;;;;;3.40;1.87;;;;;;;;;;4919904;29;20441;-84
2023/05/19 11:16:46;;;;;;;3.77;2.20;;;;;;;;;;4936725;29;20414;-83
2023/05/19 11:19:40;;;;;;;3.10;2.00;;;;;;;;;;4936894;29;20414;-83
2023/05/19 11:22:10;;;;;;;3.53;2.17;;;;;;;;;;4935100;29;20567;-84
2023/05/19 11:24:51;;;;;;;3.57;2.07;;;;;;;;;;4936655;29;20421;-84
2023/05/19 11:27:19;;;;;;;10.80;2.20;;;;;;;;;;4936774;29;20417;-85
2023/05/19 11:29:47;;;;;;;4.73;1.80;;;;;;;;;;4936771;29;20773;-79
2023/05/19 11:32:13;;;;;;;3.67;1.90;;;;;;;;;;4936868;29;20504;-80
2023/05/19 11:34:39;;;;;;;6.90;2.10;;;;;;;;;;4936392;29;20414;-81
2023/05/19 11:37:06;;;;;;;2.80;1.93;;;;;;;;;;4937163;29;20790;-81
2023/05/19 11:39:32;;;;;;;3.90;1.70;;;;;;;;;;4936859;29;20462;-81
2023/05/19 11:41:58;;;;;;;2.97;1.80;;;;;;;;;;4936783;29;20819;-81
2023/05/19 11:44:24;;;;;;;8.93;1.93;;;;;;;;;;4936624;29;20408;-81
2023/05/19 11:46:50;;;;;;;4.33;1.77;;;;;;;;;;4936526;29;20892;-83
2023/05/19 11:49:16;;;;;;;5.03;2.43;;;;;;;;;;4936489;29;20417;-82
2023/05/19 11:51:45;;;;;;;4.23;2.10;;;;;;;;;;4935853;29;20465;-82
2023/05/19 11:54:12;;;;;;;4.57;2.13;;;;;;;;;;4940366;29;20448;-81
2023/05/19 11:56:41;;;;;;;4.40;1.83;;;;;;;;;;4946406;29;20512;-81
2023/05/19 11:59:10;;;;;;;5.83;1.63;;;;;;;;;;4951675;29;20794;-81
2023/05/19 12:01:36;;;;;;;4.53;2.00;;;;;;;;;;4945917;29;20456;-81
2023/05/19 12:04:07;;;;;;;7.37;1.87;;;;;;;;;;4945899;29;20413;-81
2023/05/19 12:06:33;;;;;;;4.90;1.83;;;;;;;;;;4944066;29;20430;-81
2023/05/19 12:08:59;;;;;;;4.33;1.70;;;;;;;;;;4955392;29;20432;-81
2023/05/19 12:11:27;;;;;;;3.33;1.80;;;;;;;;;;4955134;29;20980;-81
2023/05/19 12:13:54;;;;;;;4.27;2.17;;;;;;;;;;4954760;29;20467;-82
2023/05/19 12:16:21;;;;;;;5.53;1.70;;;;;;;;;;4954587;29;20400;-81
2023/05/19 12:18:47;;;;;;;6.80;2.00;;;;;;;;;;4955073;29;20931;-82
2023/05/19 12:21:13;;;;;;;3.47;1.90;;;;;;;;;;4955154;29;20412;-81
2023/05/19 12:23:40;;;;;;;7.37;1.90;;;;;;;;;;4956735;28;20397;-81
2023/05/19 12:26:06;;;;;;;8.03;2.03;;;;;;;;;;4959344;29;20440;-81
2023/05/19 12:28:32;;;;;;;4.93;1.63;;;;;;;;;;4958816;29;20416;-81
2023/05/19 12:30:58;;;;;;;2.30;1.63;;;;;;;;;;4959363;29;20432;-81
2023/05/19 12:33:25;;;;;;;4.70;2.10;;;;;;;;;;4959011;29;20459;-81
2023/05/19 12:35:51;;;;;;;6.23;2.20;;;;;;;;;;4959580;29;20404;-81
2023/05/19 12:38:19;;;;;;;10.53;2.07;;;;;;;;;;4959320;29;20440;-81
2023/05/19 12:40:45;;;;;;;5.27;2.13;;;;;;;;;;4958639;29;20419;-81
2023/05/19 12:43:23;;;;;;;3.43;1.77;;;;;;;;;;4959137;29;20456;-81
2023/05/19 12:45:49;;;;;;;3.40;1.70;;;;;;;;;;4959205;29;20404;-81
2023/05/19 12:48:15;;;;;;;8.33;2.10;;;;;;;;;;4959166;29;20459;-81
2023/05/19 12:50:43;;;;;;;5.40;1.97;;;;;;;;;;4958238;29;20495;-81
2023/05/19 12:53:10;;;;;;;2.90;1.80;;;;;;;;;;4958892;29;20405;-81
2023/05/19 12:55:43;;;;;;;2.97;1.63;;;;;;;;;;4958593;29;20408;-81
2023/05/19 12:58:10;;;;;;;6.27;2.30;;;;;;;;;;4957096;29;20412;-81
2023/05/19 13:00:59;;;;;;;3.47;1.40;;;;;;;;;;4957032;29;20427;-80
2023/05/19 13:03:25;;;;;;;5.93;2.20;;;;;;;;;;4958040;29;20490;-80
2023/05/19 13:05:51;;;;;;;5.80;2.10;;;;;;;;;;4958593;29;20404;-80
2023/05/19 13:08:22;;;;;;;4.50;2.00;;;;;;;;;;4952357;29;20553;-82
2023/05/19 13:10:48;;;;;;;3.03;1.47;;;;;;;;;;4949477;29;20448;-82
2023/05/19 13:13:14;;;;;;;4.47;2.33;;;;;;;;;;4941509;29;20464;-84
2023/05/19 13:15:42;;;;;;;3.40;1.60;;;;;;;;;;4939106;29;20464;-83
2023/05/19 13:18:09;;;;;;;4.00;1.80;;;;;;;;;;4939042;29;20435;-83
2023/05/19 13:20:35;;;;;;;3.43;1.70;;;;;;;;;;4938525;29;20417;-81
2023/05/19 13:23:02;;;;;;;3.00;1.90;;;;;;;;;;4938878;29;20468;-82
2023/05/19 13:25:28;;;;;;;2.47;1.60;;;;;;;;;;4938564;29;20433;-82
2023/05/19 13:27:55;;;;;;;2.27;1.63;;;;;;;;;;4938913;29;20425;-83
2023/05/19 13:30:22;;;;;;;5.70;2.50;;;;;;;;;;4938701;29;20459;-82
2023/05/19 13:32:49;;;;;;;3.30;1.67;;;;;;;;;;4938159;29;20775;-81
2023/05/19 13:35:15;;;;;;;3.63;2.10;;;;;;;;;;4938212;29;20420;-83
2023/05/19 13:37:41;;;;;;;6.93;2.50;;;;;;;;;;4938355;29;20449;-83
2023/05/19 13:40:08;;;;;;;2.90;1.63;;;;;;;;;;4943490;29;20425;-82
2023/05/19 13:42:34;;;;;;;4.97;1.87;;;;;;;;;;4938426;29;20863;-82
2023/05/19 13:45:00;;;;;;;4.43;1.90;;;;;;;;;;4938931;29;20409;-83
2023/05/19 13:47:26;;;;;;;5.10;1.90;;;;;;;;;;4938465;29;20500;-82
2023/05/19 13:49:53;;;;;;;4.40;1.80;;;;;;;;;;4938624;29;20769;-82
2023/05/19 13:52:22;;;;;;;2.60;1.57;;;;;;;;;;4944132;28;20435;-83
2023/05/19 13:54:48;;;;;;;5.27;2.10;;;;;;;;;;4946805;29;20475;-82
2023/05/19 13:57:14;;;;;;;2.57;1.70;;;;;;;;;;4957435;29;20413;-82
2023/05/19 13:59:41;;;;;;;4.33;2.30;;;;;;;;;;4957496;29;20416;-82
2023/05/19 14:02:07;;;;;;;6.47;1.90;;;;;;;;;;4957538;29;20475;-83
2023/05/19 14:04:36;;;;;;;6.27;2.43;;;;;;;;;;4939930;29;20416;-82
2023/05/19 14:07:02;;;;;;;4.40;2.40;;;;;;;;;;4957268;29;20415;-82
2023/05/19 14:09:28;;;;;;;3.00;2.13;;;;;;;;;;4956742;29;20897;-82
2023/05/19 14:11:54;;;;;;;8.07;1.93;;;;;;;;;;4955839;29;20424;-84
2023/05/19 14:14:20;;;;;;;4.00;1.97;;;;;;;;;;4941052;29;20433;-83
2023/05/19 14:16:46;;;;;;;5.37;2.00;;;;;;;;;;4937660;29;20422;-83
2023/05/19 14:19:13;;;;;;;3.30;2.33;;;;;;;;;;4937659;29;20440;-83
2023/05/19 14:21:39;;;;;;;6.23;2.43;;;;;;;;;;4937290;29;20559;-82
2023/05/19 14:24:05;;;;;;;5.17;2.03;;;;;;;;;;4944768;29;20413;-82
2023/05/19 14:26:31;;;;;;;4.90;2.20;;;;;;;;;;4956645;29;20471;-82
2023/05/19 14:28:57;;;;;;;5.67;2.27;;;;;;;;;;4956460;28;20952;-82
2023/05/19 14:31:23;;;;;;;5.60;2.17;;;;;;;;;;4956466;29;20428;-83
2023/05/19 14:33:51;;;;;;;6.90;2.53;;;;;;;;;;4956343;29;20465;-82
2023/05/19 14:36:17;;;;;;;6.00;2.30;;;;;;;;;;4944602;29;20778;-82